Estación municipal de Susqueda - St. Martí Sacalm (La Selva, )

Consulta los datos en tiempo real de la estación municipal de Susqueda - St. Martí Sacalm





Hora UTC 04:35
Temperatura 21.2 ºC
Humedad 77.8 %
Presión 1023.3 hPa
Pluja 0.0 mm
Velocidad viento 9.1 km/h
Dirección viento SW
Radiación solar 0.1 W/m²

Datos diarios 2026-09-04



Hora UTC (invierno +1h; verano +2h)
Temperatura (ºC) Humedad (%) Presión (hPa) Velocidad viento (km/h) Precipitación (mm) Radiación solar (W/m²)
Hora UTC Aire Humedad Presión Vel. Dir. Vel. Max Dir. Intent. máx 5 min. Rad. Sol.
00:05 22.8 69.5 1024.7 12.3 SW 12.3 SW 0.0 0.1
00:10 22.6 69.9 1024.7 11.8 SW 14.8 SW 0.0 0.1
00:15 22.3 71.1 1024.7 11.4 SW 13.4 SW 0.0 0.2
00:20 22.0 72.1 1024.7 10.7 SSW 13.4 SW 0.0 0.1
00:25 21.8 72.8 1024.6 11.5 SW 13.8 SSW 0.0 0.1
00:30 21.9 72.8 1024.6 10.7 SW 13.8 SW 0.0 0.1
00:35 21.8 73.4 1024.6 10.9 SW 13.4 SW 0.0 0.1
00:40 22.0 73.2 1024.5 11.0 SW 12.7 SW 0.0 0.1
00:45 22.1 73.2 1024.5 10.6 SW 12.4 SW 0.0 0.2
00:50 22.1 73.3 1024.4 8.9 SW 11.3 SW 0.0 0.2
00:55 22.1 73.1 1024.4 9.6 SSW 12.0 SW 0.0 0.1
01:00 22.1 72.9 1024.3 8.5 SSW 10.3 SSW 0.0 0.1
01:05 22.0 73.2 1024.3 8.0 SSW 10.3 SW 0.0 0.1
01:10 21.9 73.3 1024.3 7.2 SSW 10.3 SW 0.0 0.1
01:15 21.9 73.4 1024.2 9.0 SW 12.7 SW 0.0 0.1
01:20 22.0 73.1 1024.2 8.9 SW 11.3 SSW 0.0 0.1
01:25 21.9 73.4 1024.2 9.7 SW 12.7 SW 0.0 0.2
01:30 21.9 73.6 1024.2 10.7 SW 12.7 SW 0.0 0.1
01:35 21.8 74.1 1024.2 8.4 SSW 10.3 SSW 0.0 0.1
01:40 21.8 74.4 1024.1 8.8 SSW 11.0 SW 0.0 0.1
01:45 21.7 74.4 1024.1 8.1 SSW 11.3 SSW 0.0 0.1
01:50 21.6 74.6 1024.1 8.4 SW 10.3 SSW 0.0 0.1
01:55 21.7 74.1 1024.0 7.9 SW 9.9 SW 0.0 0.2
02:00 21.8 73.7 1024.0 8.3 SW 9.9 SW 0.0 0.1
02:05 21.8 73.5 1024.0 7.8 SW 9.2 SSW 0.0 0.2
02:10 22.0 72.7 1023.9 8.3 SW 10.6 SW 0.0 0.1
02:15 22.1 72.5 1023.9 9.9 SW 12.0 SW 0.0 0.1
02:20 22.0 73.0 1023.9 9.2 SW 11.3 SW 0.0 0.1
02:25 21.9 73.5 1023.8 9.3 SSW 11.0 SSW 0.0 0.1
02:30 21.8 74.1 1023.8 9.4 SW 11.7 SW 0.0 0.1
02:35 21.7 73.8 1023.8 9.6 SW 13.1 SW 0.0 0.1
02:40 21.7 73.7 1023.8 9.8 SW 11.7 SW 0.0 0.2
02:45 21.7 73.8 1023.8 10.6 SW 13.1 SW 0.0 0.1
02:50 21.8 73.8 1023.8 11.2 SW 13.4 SW 0.0 0.1
02:55 21.7 74.0 1023.8 10.0 SW 12.0 SW 0.0 0.1
03:00 21.6 74.7 1023.8 10.2 SW 12.7 SW 0.0 0.1
03:05 21.5 75.3 1023.8 9.5 SW 11.3 SW 0.0 0.1
03:10 21.5 75.5 1023.8 8.2 SSW 9.9 SSW 0.0 0.1
03:15 21.5 75.6 1023.7 8.5 SSW 11.7 SSW 0.0 0.1
03:20 21.4 75.7 1023.7 9.7 SSW 12.4 SSW 0.0 0.1
03:25 21.1 76.8 1023.7 12.9 SW 15.9 SW 0.0 0.1
03:30 21.2 76.7 1023.6 11.8 SW 14.1 SW 0.0 0.1
03:35 21.1 77.0 1023.6 11.7 SW 14.1 SW 0.0 0.1
03:40 21.2 77.2 1023.5 10.6 SSW 12.7 SW 0.0 0.1
03:45 21.1 78.2 1023.5 10.9 SW 13.1 SW 0.0 0.1
03:50 21.0 78.9 1023.5 11.1 SW 14.1 SW 0.0 0.1
03:55 20.9 79.1 1023.4 10.2 SW 12.7 SW 0.0 0.2
04:00 20.9 78.9 1023.4 11.9 SW 14.5 SW 0.0 0.1
04:05 20.9 78.8 1023.4 11.3 SW 14.1 SW 0.0 0.1
04:10 20.8 79.2 1023.4 10.8 SW 13.4 SSW 0.0 0.2
04:15 21.1 77.6 1023.4 10.0 SW 12.4 SW 0.0 0.1
04:20 21.3 76.5 1023.3 9.5 SW 11.7 SW 0.0 0.1
04:25 21.2 77.5 1023.3 10.3 SSW 12.0 SW 0.0 0.1
04:30 21.1 78.2 1023.3 10.3 SSW 12.4 SSW 0.0 0.1
04:35 21.2 77.8 1023.3 9.1 SW 11.3 SW 0.0 0.1
Máxima 22.8 79.2 1024.7 12.9 SW 15.9 SW 0.0 0.2
Mínima 20 69.5 1023.3
Total 0.0